sensor_id;sensor_type;location;lat;lon;timestamp;P1;durP1;ratioP1;P2;durP2;ratioP2
17441;SDS011;8838;50.144;8.176;2023-02-22T00:00:08;26.83;;;12.57;;
17441;SDS011;8838;50.144;8.176;2023-02-22T00:02:43;25.77;;;12.93;;
17441;SDS011;8838;50.144;8.176;2023-02-22T00:05:12;25.83;;;13.43;;
17441;SDS011;8838;50.144;8.176;2023-02-22T00:07:41;22.47;;;13.17;;
17441;SDS011;8838;50.144;8.176;2023-02-22T00:10:09;28.37;;;13.43;;
17441;SDS011;8838;50.144;8.176;2023-02-22T00:12:38;23.43;;;12.50;;
17441;SDS011;8838;50.144;8.176;2023-02-22T00:15:05;22.07;;;13.57;;
17441;SDS011;8838;50.144;8.176;2023-02-22T00:17:33;32.30;;;16.13;;
17441;SDS011;8838;50.144;8.176;2023-02-22T00:20:00;34.17;;;18.10;;
17441;SDS011;8838;50.144;8.176;2023-02-22T00:22:30;31.13;;;16.97;;
17441;SDS011;8838;50.144;8.176;2023-02-22T00:24:58;40.57;;;18.93;;
17441;SDS011;8838;50.144;8.176;2023-02-22T00:27:25;32.93;;;17.97;;
17441;SDS011;8838;50.144;8.176;2023-02-22T00:29:52;30.00;;;16.37;;
17441;SDS011;8838;50.144;8.176;2023-02-22T00:32:20;32.53;;;16.30;;
17441;SDS011;8838;50.144;8.176;2023-02-22T00:34:50;27.63;;;15.33;;
17441;SDS011;8838;50.144;8.176;2023-02-22T00:37:17;29.10;;;16.37;;
17441;SDS011;8838;50.144;8.176;2023-02-22T00:39:45;25.87;;;14.73;;
17441;SDS011;8838;50.144;8.176;2023-02-22T00:42:13;26.10;;;14.83;;
17441;SDS011;8838;50.144;8.176;2023-02-22T00:44:40;23.10;;;14.03;;
17441;SDS011;8838;50.144;8.176;2023-02-22T00:47:07;29.83;;;16.40;;
17441;SDS011;8838;50.144;8.176;2023-02-22T00:49:34;32.37;;;17.47;;
17441;SDS011;8838;50.144;8.176;2023-02-22T00:52:02;34.13;;;18.30;;
17441;SDS011;8838;50.144;8.176;2023-02-22T00:54:29;31.17;;;16.77;;
17441;SDS011;8838;50.144;8.176;2023-02-22T00:56:56;31.73;;;17.00;;
17441;SDS011;8838;50.144;8.176;2023-02-22T00:59:24;29.80;;;16.40;;
17441;SDS011;8838;50.144;8.176;2023-02-22T01:01:51;26.87;;;15.83;;
17441;SDS011;8838;50.144;8.176;2023-02-22T01:04:18;30.70;;;16.70;;
17441;SDS011;8838;50.144;8.176;2023-02-22T01:06:45;30.30;;;17.30;;
17441;SDS011;8838;50.144;8.176;2023-02-22T01:09:11;30.33;;;16.60;;
17441;SDS011;8838;50.144;8.176;2023-02-22T01:11:38;26.53;;;16.00;;
17441;SDS011;8838;50.144;8.176;2023-02-22T01:14:05;30.50;;;16.87;;
17441;SDS011;8838;50.144;8.176;2023-02-22T01:16:35;30.30;;;15.80;;
17441;SDS011;8838;50.144;8.176;2023-02-22T01:19:01;30.80;;;16.97;;
17441;SDS011;8838;50.144;8.176;2023-02-22T01:21:30;27.40;;;16.10;;
17441;SDS011;8838;50.144;8.176;2023-02-22T01:23:57;26.63;;;15.97;;
17441;SDS011;8838;50.144;8.176;2023-02-22T01:26:23;29.37;;;15.23;;
17441;SDS011;8838;50.144;8.176;2023-02-22T01:28:50;29.27;;;15.77;;
17441;SDS011;8838;50.144;8.176;2023-02-22T01:31:17;28.77;;;16.50;;
17441;SDS011;8838;50.144;8.176;2023-02-22T01:33:45;28.70;;;16.77;;
17441;SDS011;8838;50.144;8.176;2023-02-22T01:36:14;31.37;;;16.67;;
17441;SDS011;8838;50.144;8.176;2023-02-22T01:38:43;27.87;;;15.83;;
17441;SDS011;8838;50.144;8.176;2023-02-22T01:41:10;27.43;;;16.83;;
17441;SDS011;8838;50.144;8.176;2023-02-22T01:43:37;32.07;;;18.37;;
17441;SDS011;8838;50.144;8.176;2023-02-22T01:46:04;32.50;;;18.43;;
17441;SDS011;8838;50.144;8.176;2023-02-22T01:48:34;29.87;;;17.10;;
17441;SDS011;8838;50.144;8.176;2023-02-22T01:51:08;32.63;;;17.93;;
17441;SDS011;8838;50.144;8.176;2023-02-22T01:53:39;32.27;;;18.10;;
17441;SDS011;8838;50.144;8.176;2023-02-22T01:56:10;36.23;;;19.70;;
17441;SDS011;8838;50.144;8.176;2023-02-22T01:58:40;30.23;;;16.60;;
17441;SDS011;8838;50.144;8.176;2023-02-22T02:01:11;28.20;;;15.20;;
17441;SDS011;8838;50.144;8.176;2023-02-22T02:03:39;29.70;;;15.30;;
17441;SDS011;8838;50.144;8.176;2023-02-22T02:06:09;29.03;;;15.33;;
17441;SDS011;8838;50.144;8.176;2023-02-22T02:08:41;36.63;;;18.63;;
17441;SDS011;8838;50.144;8.176;2023-02-22T02:11:17;38.40;;;19.83;;
17441;SDS011;8838;50.144;8.176;2023-02-22T02:13:46;42.40;;;21.17;;
17441;SDS011;8838;50.144;8.176;2023-02-22T02:16:14;41.63;;;21.97;;
17441;SDS011;8838;50.144;8.176;2023-02-22T02:18:41;41.77;;;22.33;;
17441;SDS011;8838;50.144;8.176;2023-02-22T02:24:21;41.73;;;23.53;;
17441;SDS011;8838;50.144;8.176;2023-02-22T02:27:09;40.00;;;21.70;;
17441;SDS011;8838;50.144;8.176;2023-02-22T02:32:45;41.53;;;21.07;;
17441;SDS011;8838;50.144;8.176;2023-02-22T02:35:18;39.37;;;21.43;;
17441;SDS011;8838;50.144;8.176;2023-02-22T02:37:54;38.20;;;21.13;;
17441;SDS011;8838;50.144;8.176;2023-02-22T02:40:26;37.60;;;19.90;;
17441;SDS011;8838;50.144;8.176;2023-02-22T02:43:00;36.67;;;19.07;;
17441;SDS011;8838;50.144;8.176;2023-02-22T02:45:34;33.33;;;19.47;;
17441;SDS011;8838;50.144;8.176;2023-02-22T02:48:06;39.17;;;20.60;;
17441;SDS011;8838;50.144;8.176;2023-02-22T02:50:38;40.93;;;21.47;;
17441;SDS011;8838;50.144;8.176;2023-02-22T02:53:09;37.87;;;21.57;;
17441;SDS011;8838;50.144;8.176;2023-02-22T02:55:38;40.03;;;20.87;;
17441;SDS011;8838;50.144;8.176;2023-02-22T02:58:05;48.73;;;25.50;;
17441;SDS011;8838;50.144;8.176;2023-02-22T03:00:33;39.63;;;20.97;;
17441;SDS011;8838;50.144;8.176;2023-02-22T03:03:08;43.47;;;23.20;;
17441;SDS011;8838;50.144;8.176;2023-02-22T03:05:57;38.50;;;20.23;;
17441;SDS011;8838;50.144;8.176;2023-02-22T03:08:47;34.27;;;19.47;;
17441;SDS011;8838;50.144;8.176;2023-02-22T03:11:18;33.63;;;17.60;;
17441;SDS011;8838;50.144;8.176;2023-02-22T03:13:49;34.27;;;18.00;;
17441;SDS011;8838;50.144;8.176;2023-02-22T03:16:23;34.10;;;18.00;;
17441;SDS011;8838;50.144;8.176;2023-02-22T03:19:01;33.20;;;17.83;;
17441;SDS011;8838;50.144;8.176;2023-02-22T03:21:36;31.77;;;17.77;;
17441;SDS011;8838;50.144;8.176;2023-02-22T03:24:11;40.40;;;20.70;;
17441;SDS011;8838;50.144;8.176;2023-02-22T03:26:44;35.23;;;20.73;;
17441;SDS011;8838;50.144;8.176;2023-02-22T03:29:16;40.60;;;22.23;;
17441;SDS011;8838;50.144;8.176;2023-02-22T03:31:45;39.20;;;21.67;;
17441;SDS011;8838;50.144;8.176;2023-02-22T03:34:18;45.17;;;24.33;;
17441;SDS011;8838;50.144;8.176;2023-02-22T03:36:49;58.83;;;29.40;;
17441;SDS011;8838;50.144;8.176;2023-02-22T03:39:22;60.83;;;31.37;;
17441;SDS011;8838;50.144;8.176;2023-02-22T03:41:55;57.50;;;28.87;;
17441;SDS011;8838;50.144;8.176;2023-02-22T03:44:27;70.00;;;31.83;;
17441;SDS011;8838;50.144;8.176;2023-02-22T03:46:56;63.73;;;33.53;;
17441;SDS011;8838;50.144;8.176;2023-02-22T03:49:30;52.80;;;28.50;;
17441;SDS011;8838;50.144;8.176;2023-02-22T03:51:59;53.03;;;29.47;;
17441;SDS011;8838;50.144;8.176;2023-02-22T03:54:27;56.73;;;31.07;;
17441;SDS011;8838;50.144;8.176;2023-02-22T03:56:55;79.27;;;37.97;;
17441;SDS011;8838;50.144;8.176;2023-02-22T03:59:25;79.80;;;39.77;;
17441;SDS011;8838;50.144;8.176;2023-02-22T04:01:53;84.03;;;39.40;;
17441;SDS011;8838;50.144;8.176;2023-02-22T04:04:21;65.93;;;34.03;;
17441;SDS011;8838;50.144;8.176;2023-02-22T04:06:50;59.67;;;32.10;;
17441;SDS011;8838;50.144;8.176;2023-02-22T04:09:18;63.83;;;30.77;;
17441;SDS011;8838;50.144;8.176;2023-02-22T04:11:45;61.33;;;32.43;;
17441;SDS011;8838;50.144;8.176;2023-02-22T04:14:12;72.77;;;36.83;;
17441;SDS011;8838;50.144;8.176;2023-02-22T04:16:39;63.43;;;33.07;;
17441;SDS011;8838;50.144;8.176;2023-02-22T04:19:06;57.80;;;31.87;;
17441;SDS011;8838;50.144;8.176;2023-02-22T04:21:33;56.03;;;30.63;;
17441;SDS011;8838;50.144;8.176;2023-02-22T04:24:01;53.53;;;29.43;;
17441;SDS011;8838;50.144;8.176;2023-02-22T04:26:28;51.57;;;27.97;;
17441;SDS011;8838;50.144;8.176;2023-02-22T04:28:55;47.37;;;26.63;;
17441;SDS011;8838;50.144;8.176;2023-02-22T04:31:21;44.43;;;24.87;;
17441;SDS011;8838;50.144;8.176;2023-02-22T04:33:48;50.07;;;27.10;;
17441;SDS011;8838;50.144;8.176;2023-02-22T04:36:15;48.47;;;27.07;;
17441;SDS011;8838;50.144;8.176;2023-02-22T04:38:42;50.43;;;27.40;;
17441;SDS011;8838;50.144;8.176;2023-02-22T04:41:10;49.17;;;27.57;;
17441;SDS011;8838;50.144;8.176;2023-02-22T04:43:38;54.50;;;29.33;;
17441;SDS011;8838;50.144;8.176;2023-02-22T04:46:04;52.03;;;28.90;;
17441;SDS011;8838;50.144;8.176;2023-02-22T04:48:31;56.73;;;30.77;;
17441;SDS011;8838;50.144;8.176;2023-02-22T04:50:58;62.17;;;32.20;;
17441;SDS011;8838;50.144;8.176;2023-02-22T04:53:25;62.33;;;32.30;;
17441;SDS011;8838;50.144;8.176;2023-02-22T04:55:52;58.37;;;31.13;;
17441;SDS011;8838;50.144;8.176;2023-02-22T04:58:20;58.37;;;29.87;;
17441;SDS011;8838;50.144;8.176;2023-02-22T05:00:47;51.57;;;28.13;;
17441;SDS011;8838;50.144;8.176;2023-02-22T05:03:14;50.50;;;27.87;;
17441;SDS011;8838;50.144;8.176;2023-02-22T05:05:41;50.17;;;26.77;;
17441;SDS011;8838;50.144;8.176;2023-02-22T05:08:07;47.90;;;26.43;;
17441;SDS011;8838;50.144;8.176;2023-02-22T05:10:34;49.93;;;26.53;;
17441;SDS011;8838;50.144;8.176;2023-02-22T05:13:01;44.53;;;23.47;;
17441;SDS011;8838;50.144;8.176;2023-02-22T05:15:31;34.13;;;19.80;;
17441;SDS011;8838;50.144;8.176;2023-02-22T05:17:58;35.83;;;19.60;;
17441;SDS011;8838;50.144;8.176;2023-02-22T05:20:25;37.57;;;19.50;;
17441;SDS011;8838;50.144;8.176;2023-02-22T05:22:53;34.33;;;19.97;;
17441;SDS011;8838;50.144;8.176;2023-02-22T05:25:20;33.50;;;18.63;;
17441;SDS011;8838;50.144;8.176;2023-02-22T05:27:48;31.63;;;18.17;;
17441;SDS011;8838;50.144;8.176;2023-02-22T05:30:17;30.47;;;16.93;;
17441;SDS011;8838;50.144;8.176;2023-02-22T05:32:45;34.63;;;17.33;;
17441;SDS011;8838;50.144;8.176;2023-02-22T05:35:12;29.87;;;16.80;;
17441;SDS011;8838;50.144;8.176;2023-02-22T05:37:39;34.87;;;19.13;;
17441;SDS011;8838;50.144;8.176;2023-02-22T05:40:06;27.27;;;15.97;;
17441;SDS011;8838;50.144;8.176;2023-02-22T05:42:33;31.13;;;16.77;;
17441;SDS011;8838;50.144;8.176;2023-02-22T05:45:00;34.00;;;17.90;;
17441;SDS011;8838;50.144;8.176;2023-02-22T05:47:28;27.30;;;16.10;;
17441;SDS011;8838;50.144;8.176;2023-02-22T05:49:56;24.53;;;13.90;;
17441;SDS011;8838;50.144;8.176;2023-02-22T05:52:23;28.93;;;15.03;;
17441;SDS011;8838;50.144;8.176;2023-02-22T05:54:50;29.00;;;15.20;;
17441;SDS011;8838;50.144;8.176;2023-02-22T05:57:17;26.07;;;15.03;;
17441;SDS011;8838;50.144;8.176;2023-02-22T05:59:44;31.03;;;16.70;;
17441;SDS011;8838;50.144;8.176;2023-02-22T06:02:11;28.53;;;16.27;;
17441;SDS011;8838;50.144;8.176;2023-02-22T06:04:37;31.73;;;17.00;;
17441;SDS011;8838;50.144;8.176;2023-02-22T06:07:06;36.40;;;17.33;;
17441;SDS011;8838;50.144;8.176;2023-02-22T06:09:32;40.23;;;20.53;;
17441;SDS011;8838;50.144;8.176;2023-02-22T06:11:59;35.93;;;19.37;;
17441;SDS011;8838;50.144;8.176;2023-02-22T06:14:26;39.23;;;19.70;;
17441;SDS011;8838;50.144;8.176;2023-02-22T06:16:53;43.90;;;21.27;;
17441;SDS011;8838;50.144;8.176;2023-02-22T06:19:20;39.53;;;20.83;;
17441;SDS011;8838;50.144;8.176;2023-02-22T06:21:48;44.80;;;21.00;;
17441;SDS011;8838;50.144;8.176;2023-02-22T06:24:16;51.23;;;22.93;;
17441;SDS011;8838;50.144;8.176;2023-02-22T06:26:43;62.53;;;25.93;;
17441;SDS011;8838;50.144;8.176;2023-02-22T06:29:10;74.27;;;25.67;;
17441;SDS011;8838;50.144;8.176;2023-02-22T06:31:38;61.67;;;27.43;;
17441;SDS011;8838;50.144;8.176;2023-02-22T06:34:04;58.53;;;26.87;;
17441;SDS011;8838;50.144;8.176;2023-02-22T06:36:31;52.87;;;25.63;;
17441;SDS011;8838;50.144;8.176;2023-02-22T06:38:58;45.83;;;23.57;;
17441;SDS011;8838;50.144;8.176;2023-02-22T06:41:26;44.83;;;22.27;;
17441;SDS011;8838;50.144;8.176;2023-02-22T06:43:53;42.13;;;21.33;;
17441;SDS011;8838;50.144;8.176;2023-02-22T06:46:19;42.53;;;19.77;;
17441;SDS011;8838;50.144;8.176;2023-02-22T06:48:46;39.30;;;19.87;;
17441;SDS011;8838;50.144;8.176;2023-02-22T06:51:15;36.17;;;18.70;;
17441;SDS011;8838;50.144;8.176;2023-02-22T06:53:42;39.70;;;19.77;;
17441;SDS011;8838;50.144;8.176;2023-02-22T06:56:09;40.27;;;21.13;;
17441;SDS011;8838;50.144;8.176;2023-02-22T06:58:37;37.63;;;19.10;;
17441;SDS011;8838;50.144;8.176;2023-02-22T07:01:04;30.90;;;16.37;;
17441;SDS011;8838;50.144;8.176;2023-02-22T07:03:32;38.33;;;19.53;;
17441;SDS011;8838;50.144;8.176;2023-02-22T07:05:59;36.37;;;19.17;;
17441;SDS011;8838;50.144;8.176;2023-02-22T07:08:28;25.47;;;12.17;;
17441;SDS011;8838;50.144;8.176;2023-02-22T07:10:55;22.20;;;11.20;;
17441;SDS011;8838;50.144;8.176;2023-02-22T07:13:22;23.07;;;12.83;;
17441;SDS011;8838;50.144;8.176;2023-02-22T07:15:50;27.30;;;13.00;;
17441;SDS011;8838;50.144;8.176;2023-02-22T07:18:17;21.33;;;12.03;;
17441;SDS011;8838;50.144;8.176;2023-02-22T07:20:44;21.20;;;12.00;;
17441;SDS011;8838;50.144;8.176;2023-02-22T07:23:12;24.97;;;12.57;;
17441;SDS011;8838;50.144;8.176;2023-02-22T07:25:39;26.30;;;13.07;;
17441;SDS011;8838;50.144;8.176;2023-02-22T07:28:06;26.33;;;13.13;;
17441;SDS011;8838;50.144;8.176;2023-02-22T07:30:35;24.53;;;13.57;;
17441;SDS011;8838;50.144;8.176;2023-02-22T07:33:04;22.93;;;12.40;;
17441;SDS011;8838;50.144;8.176;2023-02-22T07:35:33;30.03;;;16.67;;
17441;SDS011;8838;50.144;8.176;2023-02-22T07:38:02;28.23;;;15.73;;
17441;SDS011;8838;50.144;8.176;2023-02-22T07:40:30;27.53;;;16.50;;
17441;SDS011;8838;50.144;8.176;2023-02-22T07:42:57;27.63;;;16.73;;
17441;SDS011;8838;50.144;8.176;2023-02-22T07:45:26;26.83;;;16.37;;
17441;SDS011;8838;50.144;8.176;2023-02-22T07:47:55;28.97;;;16.37;;
17441;SDS011;8838;50.144;8.176;2023-02-22T07:50:24;32.17;;;16.90;;
17441;SDS011;8838;50.144;8.176;2023-02-22T07:52:54;32.70;;;17.70;;
17441;SDS011;8838;50.144;8.176;2023-02-22T07:55:23;30.13;;;17.83;;
17441;SDS011;8838;50.144;8.176;2023-02-22T07:57:52;34.03;;;17.93;;
17441;SDS011;8838;50.144;8.176;2023-02-22T08:00:21;33.57;;;17.47;;
17441;SDS011;8838;50.144;8.176;2023-02-22T08:02:49;38.40;;;20.03;;
17441;SDS011;8838;50.144;8.176;2023-02-22T08:05:17;40.33;;;21.63;;
17441;SDS011;8838;50.144;8.176;2023-02-22T08:07:46;39.00;;;23.60;;
17441;SDS011;8838;50.144;8.176;2023-02-22T08:10:14;52.83;;;34.23;;
17441;SDS011;8838;50.144;8.176;2023-02-22T08:12:42;54.20;;;33.07;;
17441;SDS011;8838;50.144;8.176;2023-02-22T08:15:14;50.90;;;32.93;;
17441;SDS011;8838;50.144;8.176;2023-02-22T08:17:42;42.40;;;26.83;;
17441;SDS011;8838;50.144;8.176;2023-02-22T08:20:09;44.17;;;25.77;;
17441;SDS011;8838;50.144;8.176;2023-02-22T08:22:36;42.13;;;25.03;;
17441;SDS011;8838;50.144;8.176;2023-02-22T08:25:06;33.47;;;20.73;;
17441;SDS011;8838;50.144;8.176;2023-02-22T08:27:33;40.73;;;24.00;;
17441;SDS011;8838;50.144;8.176;2023-02-22T08:29:59;39.60;;;24.03;;
17441;SDS011;8838;50.144;8.176;2023-02-22T08:32:26;42.53;;;25.47;;
17441;SDS011;8838;50.144;8.176;2023-02-22T08:34:53;40.03;;;25.17;;
17441;SDS011;8838;50.144;8.176;2023-02-22T08:37:21;39.10;;;24.60;;
17441;SDS011;8838;50.144;8.176;2023-02-22T08:39:48;37.70;;;23.90;;
17441;SDS011;8838;50.144;8.176;2023-02-22T08:42:16;38.67;;;23.57;;
17441;SDS011;8838;50.144;8.176;2023-02-22T08:44:43;36.90;;;22.47;;
17441;SDS011;8838;50.144;8.176;2023-02-22T08:47:10;32.57;;;19.77;;
17441;SDS011;8838;50.144;8.176;2023-02-22T08:49:37;32.73;;;18.93;;
17441;SDS011;8838;50.144;8.176;2023-02-22T08:52:04;29.13;;;18.07;;
17441;SDS011;8838;50.144;8.176;2023-02-22T08:54:31;29.00;;;18.70;;
17441;SDS011;8838;50.144;8.176;2023-02-22T08:56:57;30.73;;;17.77;;
17441;SDS011;8838;50.144;8.176;2023-02-22T08:59:26;26.95;;;16.90;;
17441;SDS011;8838;50.144;8.176;2023-02-22T09:01:52;28.70;;;17.95;;
17441;SDS011;8838;50.144;8.176;2023-02-22T09:04:19;31.92;;;17.25;;
17441;SDS011;8838;50.144;8.176;2023-02-22T09:06:46;31.38;;;17.65;;
17441;SDS011;8838;50.144;8.176;2023-02-22T09:09:16;28.75;;;16.92;;
17441;SDS011;8838;50.144;8.176;2023-02-22T09:11:45;30.52;;;17.77;;
17441;SDS011;8838;50.144;8.176;2023-02-22T09:14:12;30.23;;;18.88;;
17441;SDS011;8838;50.144;8.176;2023-02-22T09:16:42;35.05;;;19.73;;
17441;SDS011;8838;50.144;8.176;2023-02-22T09:19:09;30.38;;;16.77;;
17441;SDS011;8838;50.144;8.176;2023-02-22T09:21:35;32.17;;;17.20;;
17441;SDS011;8838;50.144;8.176;2023-02-22T09:24:04;28.92;;;16.73;;
17441;SDS011;8838;50.144;8.176;2023-02-22T09:26:33;27.15;;;16.90;;
17441;SDS011;8838;50.144;8.176;2023-02-22T09:29:03;30.92;;;17.15;;
17441;SDS011;8838;50.144;8.176;2023-02-22T09:31:33;26.05;;;16.23;;
17441;SDS011;8838;50.144;8.176;2023-02-22T09:34:02;25.75;;;16.23;;
17441;SDS011;8838;50.144;8.176;2023-02-22T09:36:30;27.58;;;16.33;;
17441;SDS011;8838;50.144;8.176;2023-02-22T09:38:57;26.42;;;15.88;;
17441;SDS011;8838;50.144;8.176;2023-02-22T09:41:24;24.48;;;15.20;;
17441;SDS011;8838;50.144;8.176;2023-02-22T09:44:00;25.52;;;15.45;;
17441;SDS011;8838;50.144;8.176;2023-02-22T09:46:39;23.50;;;14.57;;
17441;SDS011;8838;50.144;8.176;2023-02-22T09:49:15;22.00;;;14.00;;
17441;SDS011;8838;50.144;8.176;2023-02-22T09:51:46;25.05;;;14.15;;
17441;SDS011;8838;50.144;8.176;2023-02-22T09:54:18;22.83;;;13.07;;
17441;SDS011;8838;50.144;8.176;2023-02-22T09:56:49;24.15;;;14.05;;
17441;SDS011;8838;50.144;8.176;2023-02-22T09:59:20;19.88;;;13.05;;
17441;SDS011;8838;50.144;8.176;2023-02-22T10:01:53;21.90;;;14.25;;
17441;SDS011;8838;50.144;8.176;2023-02-22T10:04:28;23.83;;;13.68;;
17441;SDS011;8838;50.144;8.176;2023-02-22T10:07:09;21.90;;;13.82;;
17441;SDS011;8838;50.144;8.176;2023-02-22T10:09:42;23.88;;;14.00;;
17441;SDS011;8838;50.144;8.176;2023-02-22T10:12:11;23.40;;;15.38;;
17441;SDS011;8838;50.144;8.176;2023-02-22T10:14:47;20.42;;;14.43;;
17441;SDS011;8838;50.144;8.176;2023-02-22T10:17:23;24.77;;;15.52;;
17441;SDS011;8838;50.144;8.176;2023-02-22T10:20:02;25.73;;;15.65;;
17441;SDS011;8838;50.144;8.176;2023-02-22T10:22:42;25.58;;;15.70;;
17441;SDS011;8838;50.144;8.176;2023-02-22T10:25:16;28.48;;;16.73;;
17441;SDS011;8838;50.144;8.176;2023-02-22T10:27:47;32.53;;;17.38;;
17441;SDS011;8838;50.144;8.176;2023-02-22T10:30:19;29.20;;;16.08;;
17441;SDS011;8838;50.144;8.176;2023-02-22T10:32:49;29.67;;;18.05;;
17441;SDS011;8838;50.144;8.176;2023-02-22T10:35:22;29.50;;;17.50;;
17441;SDS011;8838;50.144;8.176;2023-02-22T10:37:51;26.52;;;16.92;;
17441;SDS011;8838;50.144;8.176;2023-02-22T10:40:21;26.95;;;17.08;;
17441;SDS011;8838;50.144;8.176;2023-02-22T10:43:00;29.02;;;18.15;;
17441;SDS011;8838;50.144;8.176;2023-02-22T10:45:28;26.80;;;17.17;;
17441;SDS011;8838;50.144;8.176;2023-02-22T10:47:57;28.20;;;17.35;;
17441;SDS011;8838;50.144;8.176;2023-02-22T10:50:29;29.90;;;17.83;;
17441;SDS011;8838;50.144;8.176;2023-02-22T10:52:57;27.45;;;17.58;;
17441;SDS011;8838;50.144;8.176;2023-02-22T10:55:23;31.02;;;17.70;;
17441;SDS011;8838;50.144;8.176;2023-02-22T10:57:51;31.13;;;18.55;;
17441;SDS011;8838;50.144;8.176;2023-02-22T11:00:27;26.77;;;17.23;;
17441;SDS011;8838;50.144;8.176;2023-02-22T11:02:56;28.25;;;17.90;;
17441;SDS011;8838;50.144;8.176;2023-02-22T11:05:26;32.40;;;17.88;;
17441;SDS011;8838;50.144;8.176;2023-02-22T11:08:12;27.63;;;16.63;;
17441;SDS011;8838;50.144;8.176;2023-02-22T11:10:41;27.42;;;17.10;;
17441;SDS011;8838;50.144;8.176;2023-02-22T11:13:15;26.20;;;16.35;;
17441;SDS011;8838;50.144;8.176;2023-02-22T11:15:43;28.10;;;15.88;;
17441;SDS011;8838;50.144;8.176;2023-02-22T11:18:20;26.40;;;15.13;;
17441;SDS011;8838;50.144;8.176;2023-02-22T11:21:01;23.15;;;15.23;;
17441;SDS011;8838;50.144;8.176;2023-02-22T11:23:30;25.25;;;14.95;;
17441;SDS011;8838;50.144;8.176;2023-02-22T11:26:08;26.42;;;15.35;;
17441;SDS011;8838;50.144;8.176;2023-02-22T11:28:38;27.70;;;15.65;;
17441;SDS011;8838;50.144;8.176;2023-02-22T11:31:13;25.92;;;15.77;;
17441;SDS011;8838;50.144;8.176;2023-02-22T11:33:46;21.10;;;14.20;;
17441;SDS011;8838;50.144;8.176;2023-02-22T11:36:28;26.13;;;15.45;;
17441;SDS011;8838;50.144;8.176;2023-02-22T11:38:56;27.42;;;16.27;;
17441;SDS011;8838;50.144;8.176;2023-02-22T11:41:26;27.17;;;16.60;;
17441;SDS011;8838;50.144;8.176;2023-02-22T11:43:54;28.85;;;16.95;;
17441;SDS011;8838;50.144;8.176;2023-02-22T11:46:39;28.10;;;16.05;;
17441;SDS011;8838;50.144;8.176;2023-02-22T11:49:07;28.58;;;15.52;;
17441;SDS011;8838;50.144;8.176;2023-02-22T11:51:44;22.67;;;15.23;;
17441;SDS011;8838;50.144;8.176;2023-02-22T11:54:37;24.38;;;14.73;;
17441;SDS011;8838;50.144;8.176;2023-02-22T11:57:22;25.45;;;15.48;;
17441;SDS011;8838;50.144;8.176;2023-02-22T12:00:03;24.52;;;14.77;;
17441;SDS011;8838;50.144;8.176;2023-02-22T12:02:53;27.48;;;14.93;;
17441;SDS011;8838;50.144;8.176;2023-02-22T12:05:47;27.60;;;14.77;;
17441;SDS011;8838;50.144;8.176;2023-02-22T12:08:27;22.00;;;14.57;;
17441;SDS011;8838;50.144;8.176;2023-02-22T12:11:06;23.05;;;14.52;;
17441;SDS011;8838;50.144;8.176;2023-02-22T12:16:42;21.73;;;14.68;;
17441;SDS011;8838;50.144;8.176;2023-02-22T12:19:23;28.55;;;15.43;;
17441;SDS011;8838;50.144;8.176;2023-02-22T12:21:57;22.88;;;14.60;;
17441;SDS011;8838;50.144;8.176;2023-02-22T12:24:35;24.25;;;14.02;;
17441;SDS011;8838;50.144;8.176;2023-02-22T12:27:06;29.17;;;13.88;;
17441;SDS011;8838;50.144;8.176;2023-02-22T12:29:38;26.77;;;14.40;;
17441;SDS011;8838;50.144;8.176;2023-02-22T12:32:10;30.90;;;15.10;;
17441;SDS011;8838;50.144;8.176;2023-02-22T12:34:44;26.40;;;14.45;;
17441;SDS011;8838;50.144;8.176;2023-02-22T12:37:17;25.13;;;13.25;;
17441;SDS011;8838;50.144;8.176;2023-02-22T12:39:54;23.15;;;13.27;;
17441;SDS011;8838;50.144;8.176;2023-02-22T12:42:32;27.00;;;14.50;;
17441;SDS011;8838;50.144;8.176;2023-02-22T12:45:12;22.02;;;12.15;;
17441;SDS011;8838;50.144;8.176;2023-02-22T12:47:53;21.85;;;13.27;;
17441;SDS011;8838;50.144;8.176;2023-02-22T12:50:31;19.88;;;12.00;;
17441;SDS011;8838;50.144;8.176;2023-02-22T12:53:03;19.80;;;11.57;;
17441;SDS011;8838;50.144;8.176;2023-02-22T12:55:41;22.23;;;12.80;;
17441;SDS011;8838;50.144;8.176;2023-02-22T12:58:17;23.27;;;12.75;;
17441;SDS011;8838;50.144;8.176;2023-02-22T13:00:50;25.30;;;14.27;;
17441;SDS011;8838;50.144;8.176;2023-02-22T13:03:30;25.23;;;14.50;;
17441;SDS011;8838;50.144;8.176;2023-02-22T13:06:13;20.17;;;12.82;;
17441;SDS011;8838;50.144;8.176;2023-02-22T13:08:54;26.58;;;14.40;;
17441;SDS011;8838;50.144;8.176;2023-02-22T13:11:42;22.35;;;13.85;;
17441;SDS011;8838;50.144;8.176;2023-02-22T13:14:23;20.88;;;13.57;;
17441;SDS011;8838;50.144;8.176;2023-02-22T13:17:08;26.25;;;14.30;;
17441;SDS011;8838;50.144;8.176;2023-02-22T13:19:45;25.17;;;14.02;;
17441;SDS011;8838;50.144;8.176;2023-02-22T13:22:18;23.23;;;14.13;;
17441;SDS011;8838;50.144;8.176;2023-02-22T13:27:39;28.02;;;16.17;;
17441;SDS011;8838;50.144;8.176;2023-02-22T13:33:03;26.25;;;15.75;;
17441;SDS011;8838;50.144;8.176;2023-02-22T13:35:51;31.15;;;17.13;;
17441;SDS011;8838;50.144;8.176;2023-02-22T13:38:57;29.52;;;16.30;;
17441;SDS011;8838;50.144;8.176;2023-02-22T13:44:55;32.00;;;16.67;;
17441;SDS011;8838;50.144;8.176;2023-02-22T13:47:49;29.33;;;15.68;;
17441;SDS011;8838;50.144;8.176;2023-02-22T13:50:49;28.48;;;16.52;;
17441;SDS011;8838;50.144;8.176;2023-02-22T13:53:28;26.83;;;16.25;;
17441;SDS011;8838;50.144;8.176;2023-02-22T13:56:00;30.27;;;16.98;;
17441;SDS011;8838;50.144;8.176;2023-02-22T13:58:27;26.45;;;15.63;;
17441;SDS011;8838;50.144;8.176;2023-02-22T14:00:56;25.45;;;14.75;;
17441;SDS011;8838;50.144;8.176;2023-02-22T14:03:29;25.67;;;14.93;;
17441;SDS011;8838;50.144;8.176;2023-02-22T14:06:05;27.00;;;15.40;;
17441;SDS011;8838;50.144;8.176;2023-02-22T14:08:40;24.73;;;15.68;;
17441;SDS011;8838;50.144;8.176;2023-02-22T14:14:18;30.98;;;16.63;;
17441;SDS011;8838;50.144;8.176;2023-02-22T14:20:01;29.42;;;16.30;;
17441;SDS011;8838;50.144;8.176;2023-02-22T14:22:38;30.65;;;16.58;;
17441;SDS011;8838;50.144;8.176;2023-02-22T14:25:13;31.80;;;16.95;;
17441;SDS011;8838;50.144;8.176;2023-02-22T14:27:59;29.90;;;16.60;;
17441;SDS011;8838;50.144;8.176;2023-02-22T14:30:27;29.23;;;17.65;;
17441;SDS011;8838;50.144;8.176;2023-02-22T14:32:58;29.63;;;16.42;;
17441;SDS011;8838;50.144;8.176;2023-02-22T14:35:27;32.40;;;16.85;;
17441;SDS011;8838;50.144;8.176;2023-02-22T14:38:02;29.05;;;16.33;;
17441;SDS011;8838;50.144;8.176;2023-02-22T14:40:33;29.48;;;15.98;;
17441;SDS011;8838;50.144;8.176;2023-02-22T14:43:03;25.98;;;16.10;;
17441;SDS011;8838;50.144;8.176;2023-02-22T14:45:36;28.55;;;16.42;;
17441;SDS011;8838;50.144;8.176;2023-02-22T14:48:16;28.85;;;15.75;;
17441;SDS011;8838;50.144;8.176;2023-02-22T14:50:50;27.73;;;16.25;;
17441;SDS011;8838;50.144;8.176;2023-02-22T14:53:22;26.25;;;15.65;;
17441;SDS011;8838;50.144;8.176;2023-02-22T14:55:55;33.15;;;16.15;;
17441;SDS011;8838;50.144;8.176;2023-02-22T14:58:28;28.90;;;16.25;;
17441;SDS011;8838;50.144;8.176;2023-02-22T15:00:59;27.08;;;15.68;;
17441;SDS011;8838;50.144;8.176;2023-02-22T15:03:48;29.60;;;15.63;;
17441;SDS011;8838;50.144;8.176;2023-02-22T15:06:16;30.00;;;16.40;;
17441;SDS011;8838;50.144;8.176;2023-02-22T15:08:48;26.23;;;16.95;;
17441;SDS011;8838;50.144;8.176;2023-02-22T15:11:30;31.25;;;17.10;;
17441;SDS011;8838;50.144;8.176;2023-02-22T15:13:58;29.80;;;17.58;;
17441;SDS011;8838;50.144;8.176;2023-02-22T15:16:27;25.58;;;17.02;;
17441;SDS011;8838;50.144;8.176;2023-02-22T15:18:58;32.88;;;18.38;;